Time;durP1;ratioP1;P1;durP2;ratioP2;P2;SDS_P1;SDS_P2;PMS_P1;PMS_P2;Temp;Humidity;BMP_temperature;BMP_pressure;BME280_temperature;BME280_humidity;BME280_pressure;Samples;Min_cycle;Max_cycle;Signal;HPM_P1;HPM_P2
2022/01/02 00:01:00;;;;;;;;;;;4.20;99.90;;;;;;5086421;28;19925;-70
2022/01/02 00:03:29;;;;;;;;;;;4.20;99.90;;;;;;5096863;28;20215;-70
2022/01/02 00:06:00;;;;;;;;;;;4.20;99.90;;;;;;5106660;28;19926;-70
2022/01/02 00:08:27;;;;;;;;;;;4.20;99.90;;;;;;5102976;28;19926;-70
2022/01/02 00:10:57;;;;;;;;;;;4.20;99.90;;;;;;5086406;28;19992;-70
2022/01/02 00:13:27;;;;;;;;;;;4.20;99.90;;;;;;5086590;28;19920;-70
2022/01/02 00:15:56;;;;;;;;;;;4.20;99.90;;;;;;5094530;28;19927;-70
2022/01/02 00:18:26;;;;;;;;;;;4.20;99.90;;;;;;5106166;28;19991;-70
2022/01/02 00:20:55;;;;;;;;;;;4.10;99.90;;;;;;5106290;28;19977;-70
2022/01/02 00:23:30;;;;;;;;;;;4.10;99.90;;;;;;5105860;28;19927;-71
2022/01/02 00:25:58;;;;;;;;;;;4.10;99.90;;;;;;5103947;28;20199;-69
2022/01/02 00:28:27;;;;;;;;;;;4.10;99.90;;;;;;5104494;28;19958;-70
2022/01/02 00:30:54;;;;;;;;;;;4.10;99.90;;;;;;5105161;28;19974;-70
2022/01/02 00:33:21;;;;;;;;;;;4.10;99.90;;;;;;5106445;28;19924;-70
2022/01/02 00:35:48;;;;;;;;;;;4.10;99.90;;;;;;5105805;28;19998;-70
2022/01/02 00:38:17;;;;;;;;;;;4.00;99.90;;;;;;5103353;28;19920;-71
2022/01/02 00:40:46;;;;;;;;;;;4.00;99.90;;;;;;5085850;28;20053;-70
2022/01/02 00:43:13;;;;;;;;;;;4.00;99.90;;;;;;5085813;28;20117;-69
2022/01/02 00:45:45;;;;;;;;;;;4.00;99.90;;;;;;5090807;28;19920;-69
2022/01/02 00:48:14;;;;;;;;;;;4.00;99.90;;;;;;5105078;28;19920;-70
2022/01/02 00:50:43;;;;;;;;;;;3.90;99.90;;;;;;5084741;28;19921;-70
2022/01/02 00:53:10;;;;;;;;;;;3.90;99.90;;;;;;5095366;28;19920;-69
2022/01/02 00:55:41;;;;;;;;;;;4.00;99.90;;;;;;5105341;28;19920;-71
2022/01/02 00:58:12;;;;;;;;;;;4.00;99.90;;;;;;5105772;28;19920;-70
2022/01/02 01:00:41;;;;;;;;;;;4.00;99.90;;;;;;5105261;28;20035;-69
2022/01/02 01:03:08;;;;;;;;;;;4.00;99.90;;;;;;5105299;28;19926;-70
2022/01/02 01:05:36;;;;;;;;;;;3.90;99.90;;;;;;5102791;28;19924;-70
2022/01/02 01:08:03;;;;;;;;;;;4.00;99.90;;;;;;5105146;28;19920;-70
2022/01/02 01:10:31;;;;;;;;;;;3.90;99.90;;;;;;5103568;28;20226;-69
2022/01/02 01:13:01;;;;;;;;;;;3.90;99.90;;;;;;5105914;28;19920;-69
2022/01/02 01:15:29;;;;;;;;;;;3.90;99.90;;;;;;5105074;28;19920;-69
2022/01/02 01:17:57;;;;;;;;;;;3.90;99.90;;;;;;5104775;28;19920;-69
2022/01/02 01:20:25;;;;;;;;;;;3.90;99.90;;;;;;5101612;28;19987;-70
2022/01/02 01:22:52;;;;;;;;;;;3.90;99.90;;;;;;5104954;28;19920;-70
2022/01/02 01:25:19;;;;;;;;;;;3.90;99.90;;;;;;5104969;28;19926;-68
2022/01/02 01:27:46;;;;;;;;;;;3.80;99.90;;;;;;5105277;28;19942;-70
2022/01/02 01:30:14;;;;;;;;;;;3.80;99.90;;;;;;5102806;28;19920;-69
2022/01/02 01:32:42;;;;;;;;;;;3.80;99.90;;;;;;5105239;28;19926;-69
2022/01/02 01:35:09;;;;;;;;;;;3.70;99.90;;;;;;5105100;28;19920;-69
2022/01/02 01:37:37;;;;;;;;;;;3.80;99.90;;;;;;5084715;28;19927;-70
2022/01/02 01:40:04;;;;;;;;;;;3.70;99.90;;;;;;5087555;28;19921;-69
2022/01/02 01:42:36;;;;;;;;;;;3.70;99.90;;;;;;5084507;28;19924;-69
2022/01/02 01:45:28;;;;;;;;;;;3.70;99.90;;;;;;5084685;28;20119;-69
2022/01/02 01:47:56;;;;;;;;;;;3.70;99.90;;;;;;5096049;28;20390;-69
2022/01/02 01:50:24;;;;;;;;;;;3.60;99.90;;;;;;5104507;28;19920;-69
2022/01/02 01:52:50;;;;;;;;;;;3.70;99.90;;;;;;5104251;28;19923;-69
2022/01/02 01:55:17;;;;;;;;;;;3.60;99.90;;;;;;5104088;28;20115;-69
2022/01/02 01:57:44;;;;;;;;;;;3.60;99.90;;;;;;5104229;28;19943;-71
2022/01/02 02:00:13;;;;;;;;;;;3.60;99.90;;;;;;5104334;28;19927;-69
2022/01/02 02:02:40;;;;;;;;;;;3.70;99.90;;;;;;5104054;28;20154;-69
2022/01/02 02:05:08;;;;;;;;;;;3.60;99.90;;;;;;5104000;28;19927;-70
2022/01/02 02:07:40;;;;;;;;;;;3.60;99.90;;;;;;5117251;22;20489;-70
2022/01/02 02:10:12;;;;;;;;;;;3.60;99.90;;;;;;5084366;28;19928;-71
2022/01/02 02:12:39;;;;;;;;;;;3.60;99.90;;;;;;5084162;28;20207;-71
2022/01/02 02:15:06;;;;;;;;;;;3.50;99.90;;;;;;5084150;28;19927;-71
2022/01/02 02:17:33;;;;;;;;;;;3.50;99.90;;;;;;5103690;28;19920;-71
2022/01/02 02:20:10;;;;;;;;;;;3.50;99.90;;;;;;5104189;28;19920;-71
2022/01/02 02:22:39;;;;;;;;;;;3.50;99.90;;;;;;5104259;28;19920;-71
2022/01/02 02:25:07;;;;;;;;;;;3.60;99.90;;;;;;5103663;28;20203;-71
2022/01/02 02:27:33;;;;;;;;;;;3.60;99.90;;;;;;5100970;28;19924;-71
2022/01/02 02:30:00;;;;;;;;;;;3.60;99.90;;;;;;5104092;28;19920;-71
2022/01/02 02:32:26;;;;;;;;;;;4.20;99.90;;;;;;5103307;28;20203;-71
2022/01/02 02:34:53;;;;;;;;;;;3.50;99.90;;;;;;5101324;28;20149;-71
2022/01/02 02:37:21;;;;;;;;;;;3.50;99.90;;;;;;5103139;28;19920;-71
2022/01/02 02:39:47;;;;;;;;;;;3.60;99.90;;;;;;5103470;28;19920;-71
2022/01/02 02:42:25;;;;;;;;;;;3.60;99.90;;;;;;5103717;28;19926;-71
2022/01/02 02:44:58;;;;;;;;;;;3.60;99.90;;;;;;5103168;28;19988;-71
2022/01/02 02:50:09;;;;;;;;;;;3.50;99.90;;;;;;5103741;28;19989;-71
2022/01/02 02:52:42;;;;;;;;;;;3.50;99.90;;;;;;5103436;28;19935;-71
2022/01/02 02:55:09;;;;;;;;;;;3.40;99.90;;;;;;5102502;28;19920;-71
2022/01/02 02:57:38;;;;;;;;;;;3.40;99.90;;;;;;5102896;28;20228;-71
2022/01/02 03:00:05;;;;;;;;;;;3.40;99.90;;;;;;5103431;28;19920;-72
2022/01/02 03:02:32;;;;;;;;;;;3.40;99.90;;;;;;5103586;28;19920;-71
2022/01/02 03:04:59;;;;;;;;;;;3.40;99.90;;;;;;5103049;28;20212;-71
2022/01/02 03:07:25;;;;;;;;;;;3.40;99.90;;;;;;5103160;28;19943;-71
2022/01/02 03:09:58;;;;;;;;;;;3.40;99.90;;;;;;5103331;28;20216;-71
2022/01/02 03:12:24;;;;;;;;;;;3.40;99.90;;;;;;5103573;28;19920;-71
2022/01/02 03:14:51;;;;;;;;;;;3.40;99.90;;;;;;5103375;28;19920;-71
2022/01/02 03:17:17;;;;;;;;;;;3.40;99.90;;;;;;5102897;28;19920;-72
2022/01/02 03:19:44;;;;;;;;;;;3.40;99.90;;;;;;5103209;28;19926;-72
2022/01/02 03:22:12;;;;;;;;;;;3.40;99.90;;;;;;5103201;28;19928;-71
2022/01/02 03:24:39;;;;;;;;;;;3.30;99.90;;;;;;5102697;28;19930;-71
2022/01/02 03:27:07;;;;;;;;;;;3.30;99.90;;;;;;5102983;28;19926;-71
2022/01/02 03:29:33;;;;;;;;;;;3.30;99.90;;;;;;5102409;28;19920;-72
2022/01/02 03:32:02;;;;;;;;;;;3.30;99.90;;;;;;5101277;28;19988;-71
2022/01/02 03:34:28;;;;;;;;;;;3.30;99.90;;;;;;5103437;28;19920;-71
2022/01/02 03:36:55;;;;;;;;;;;3.30;99.90;;;;;;5103562;28;19920;-72
2022/01/02 03:39:22;;;;;;;;;;;3.20;99.90;;;;;;5103287;28;20096;-71
2022/01/02 03:41:49;;;;;;;;;;;3.30;99.90;;;;;;5102930;28;19943;-71
2022/01/02 03:44:17;;;;;;;;;;;3.20;99.90;;;;;;5102943;28;19920;-71
2022/01/02 03:46:44;;;;;;;;;;;3.30;99.90;;;;;;5101958;28;19927;-71
2022/01/02 03:49:11;;;;;;;;;;;3.20;99.90;;;;;;5084391;28;19920;-71
2022/01/02 03:51:37;;;;;;;;;;;3.20;99.90;;;;;;5082579;28;19925;-72
2022/01/02 03:54:04;;;;;;;;;;;3.20;99.90;;;;;;5082506;28;19925;-72
2022/01/02 03:56:31;;;;;;;;;;;3.20;99.90;;;;;;5091042;28;20122;-71
2022/01/02 03:58:57;;;;;;;;;;;3.20;99.90;;;;;;5102946;28;19943;-71
2022/01/02 04:01:25;;;;;;;;;;;3.20;99.90;;;;;;5103193;28;19924;-71
2022/01/02 04:03:51;;;;;;;;;;;3.20;99.90;;;;;;5102688;28;19923;-71
2022/01/02 04:06:18;;;;;;;;;;;3.20;99.90;;;;;;5105554;28;19921;-71
2022/01/02 04:08:45;;;;;;;;;;;3.20;99.90;;;;;;5106345;28;19920;-71
2022/01/02 04:11:11;;;;;;;;;;;3.20;99.90;;;;;;5106599;28;19926;-72
2022/01/02 04:13:39;;;;;;;;;;;3.10;99.90;;;;;;5104751;28;19928;-72
2022/01/02 04:16:05;;;;;;;;;;;3.20;99.90;;;;;;5091002;28;19926;-71
2022/01/02 04:18:33;;;;;;;;;;;3.10;99.90;;;;;;5106180;28;19927;-72
2022/01/02 04:21:00;;;;;;;;;;;3.10;99.90;;;;;;5106509;28;19928;-71
2022/01/02 04:23:26;;;;;;;;;;;3.10;99.90;;;;;;5106279;28;19920;-71
2022/01/02 04:25:53;;;;;;;;;;;3.10;99.90;;;;;;5105034;28;19920;-72
2022/01/02 04:28:19;;;;;;;;;;;3.10;99.90;;;;;;5106342;28;19920;-71
2022/01/02 04:30:46;;;;;;;;;;;3.10;99.90;;;;;;5104091;28;19923;-71
2022/01/02 04:33:12;;;;;;;;;;;3.00;99.90;;;;;;5106224;28;20203;-71
2022/01/02 04:35:48;;;;;;;;;;;3.00;99.90;;;;;;5105931;28;19950;-71
2022/01/02 04:38:16;;;;;;;;;;;3.00;99.90;;;;;;5105877;28;20114;-72
2022/01/02 04:40:43;;;;;;;;;;;2.90;99.90;;;;;;5105546;28;19926;-71
2022/01/02 04:43:09;;;;;;;;;;;2.90;99.90;;;;;;5105958;28;19921;-71
2022/01/02 04:45:36;;;;;;;;;;;2.90;99.90;;;;;;5105058;28;19977;-72
2022/01/02 04:48:02;;;;;;;;;;;2.90;99.90;;;;;;5105618;28;20262;-71
2022/01/02 04:50:29;;;;;;;;;;;2.90;99.90;;;;;;5105903;28;19920;-71
2022/01/02 04:52:55;;;;;;;;;;;2.80;99.90;;;;;;5105820;28;19927;-72
2022/01/02 04:55:24;;;;;;;;;;;2.80;99.90;;;;;;5105307;28;19920;-71
2022/01/02 04:57:50;;;;;;;;;;;2.80;99.90;;;;;;5104885;28;19920;-72
2022/01/02 05:00:17;;;;;;;;;;;2.80;99.90;;;;;;5089523;28;19927;-71
2022/01/02 05:02:44;;;;;;;;;;;2.80;99.90;;;;;;5085203;28;19927;-72
2022/01/02 05:05:10;;;;;;;;;;;2.80;99.90;;;;;;5096087;28;19920;-71
2022/01/02 05:07:37;;;;;;;;;;;2.80;99.90;;;;;;5105302;28;19920;-71
2022/01/02 05:10:04;;;;;;;;;;;2.80;99.90;;;;;;5101543;28;20143;-71
2022/01/02 05:12:32;;;;;;;;;;;2.70;99.90;;;;;;5105640;28;19981;-71
2022/01/02 05:14:59;;;;;;;;;;;2.70;99.90;;;;;;5105336;28;19920;-71
2022/01/02 05:17:25;;;;;;;;;;;2.70;99.90;;;;;;5104747;28;19927;-71
2022/01/02 05:19:52;;;;;;;;;;;2.80;99.90;;;;;;5105258;28;19927;-71
2022/01/02 05:22:19;;;;;;;;;;;2.70;99.90;;;;;;5104870;28;19920;-71
2022/01/02 05:24:45;;;;;;;;;;;2.70;99.90;;;;;;5104835;28;19983;-71
2022/01/02 05:27:12;;;;;;;;;;;2.70;99.90;;;;;;5103598;28;19926;-72
2022/01/02 05:29:40;;;;;;;;;;;2.70;99.90;;;;;;5085984;28;19975;-71
2022/01/02 05:32:07;;;;;;;;;;;2.70;99.90;;;;;;5085003;28;20238;-71
2022/01/02 05:34:33;;;;;;;;;;;2.70;99.90;;;;;;5084798;28;20231;-71
2022/01/02 05:37:00;;;;;;;;;;;2.70;99.90;;;;;;5092577;28;19945;-71
2022/01/02 05:39:27;;;;;;;;;;;2.70;99.90;;;;;;5101626;28;19920;-71
2022/01/02 05:41:54;;;;;;;;;;;2.70;99.90;;;;;;5105244;28;20208;-71
2022/01/02 05:44:21;;;;;;;;;;;2.70;99.90;;;;;;5104982;28;19942;-71
2022/01/02 05:46:49;;;;;;;;;;;2.70;99.90;;;;;;5105188;28;19919;-71
2022/01/02 05:49:15;;;;;;;;;;;2.70;99.90;;;;;;5103375;28;19927;-72
2022/01/02 05:51:42;;;;;;;;;;;2.70;99.90;;;;;;5104722;28;19924;-71
2022/01/02 05:54:09;;;;;;;;;;;2.80;99.90;;;;;;5104226;28;19921;-71
2022/01/02 05:56:35;;;;;;;;;;;2.70;99.90;;;;;;5104723;28;19936;-72
2022/01/02 05:59:02;;;;;;;;;;;2.80;99.90;;;;;;5104503;28;19942;-71
2022/01/02 06:01:28;;;;;;;;;;;2.80;99.90;;;;;;5089275;28;20204;-71
2022/01/02 06:03:56;;;;;;;;;;;2.80;99.90;;;;;;5083691;28;19942;-71
2022/01/02 06:06:23;;;;;;;;;;;2.80;99.90;;;;;;5099697;28;19920;-71
2022/01/02 06:08:49;;;;;;;;;;;2.80;99.90;;;;;;5104163;28;19920;-71
2022/01/02 06:11:16;;;;;;;;;;;2.80;99.90;;;;;;5104099;28;19920;-71
2022/01/02 06:13:43;;;;;;;;;;;2.80;99.90;;;;;;5101540;28;19924;-72
2022/01/02 06:16:11;;;;;;;;;;;2.90;99.90;;;;;;5097094;28;20208;-71
2022/01/02 06:18:37;;;;;;;;;;;2.80;99.90;;;;;;5102902;28;19926;-71
2022/01/02 06:21:08;;;;;;;;;;;2.80;99.90;;;;;;5084134;28;19920;-71
2022/01/02 06:23:35;;;;;;;;;;;2.90;99.90;;;;;;5086160;28;19920;-71
2022/01/02 06:26:01;;;;;;;;;;;2.90;99.90;;;;;;5104533;28;19920;-71
2022/01/02 06:28:28;;;;;;;;;;;2.90;99.90;;;;;;5103119;28;19938;-70
2022/01/02 06:30:54;;;;;;;;;;;2.90;99.90;;;;;;5102396;28;19920;-71
2022/01/02 06:33:21;;;;;;;;;;;2.90;99.90;;;;;;5104368;28;19920;-71
2022/01/02 06:35:49;;;;;;;;;;;2.90;99.90;;;;;;5103849;28;20204;-71
2022/01/02 06:38:19;;;;;;;;;;;2.90;99.90;;;;;;5104067;28;19952;-71
2022/01/02 06:40:45;;;;;;;;;;;2.90;99.90;;;;;;5103444;28;19920;-72
2022/01/02 06:43:13;;;;;;;;;;;3.00;99.90;;;;;;5103697;28;19923;-71
2022/01/02 06:45:39;;;;;;;;;;;3.00;99.90;;;;;;5103334;28;20162;-72
2022/01/02 06:48:06;;;;;;;;;;;3.00;99.90;;;;;;5103509;28;19926;-72
2022/01/02 06:50:33;;;;;;;;;;;3.00;99.90;;;;;;5102813;28;19969;-72
2022/01/02 06:52:59;;;;;;;;;;;3.00;99.90;;;;;;5097888;28;19920;-71
2022/01/02 06:55:27;;;;;;;;;;;3.10;99.90;;;;;;5103216;28;19920;-72
2022/01/02 06:57:54;;;;;;;;;;;3.10;99.90;;;;;;5103170;28;19926;-71
2022/01/02 07:00:20;;;;;;;;;;;3.10;99.90;;;;;;5098365;28;19927;-71
2022/01/02 07:02:47;;;;;;;;;;;3.10;99.90;;;;;;5083817;28;19920;-71
2022/01/02 07:05:14;;;;;;;;;;;3.10;99.90;;;;;;5098423;28;19920;-71
2022/01/02 07:07:41;;;;;;;;;;;3.00;99.90;;;;;;5103701;28;19919;-72
2022/01/02 07:10:08;;;;;;;;;;;3.00;99.90;;;;;;5103352;28;19920;-70
2022/01/02 07:12:36;;;;;;;;;;;3.00;99.90;;;;;;5103428;28;19927;-71
2022/01/02 07:15:02;;;;;;;;;;;2.90;99.90;;;;;;5102547;28;19956;-71
2022/01/02 07:17:29;;;;;;;;;;;3.00;99.90;;;;;;5100472;28;20241;-71
2022/01/02 07:19:55;;;;;;;;;;;3.00;99.90;;;;;;5098948;28;20118;-71
2022/01/02 07:22:22;;;;;;;;;;;3.00;99.90;;;;;;5103663;28;19920;-71
2022/01/02 07:24:51;;;;;;;;;;;3.10;99.90;;;;;;5103341;28;19927;-71
2022/01/02 07:27:18;;;;;;;;;;;3.20;99.90;;;;;;5103208;28;20211;-71
2022/01/02 07:29:46;;;;;;;;;;;3.20;99.90;;;;;;5100276;28;19919;-71
2022/01/02 07:32:12;;;;;;;;;;;3.20;99.90;;;;;;5103704;28;19927;-71
2022/01/02 07:34:39;;;;;;;;;;;3.20;99.90;;;;;;5103364;28;19942;-71
2022/01/02 07:37:05;;;;;;;;;;;3.10;99.90;;;;;;5103444;28;20364;-70
2022/01/02 07:39:32;;;;;;;;;;;3.10;99.90;;;;;;5100695;28;20211;-71
2022/01/02 07:41:58;;;;;;;;;;;3.10;99.90;;;;;;5107719;28;19926;-71
2022/01/02 07:44:25;;;;;;;;;;;3.10;99.90;;;;;;5107599;28;19920;-70
2022/01/02 07:46:53;;;;;;;;;;;3.10;99.90;;;;;;5107529;28;19920;-71
2022/01/02 07:49:20;;;;;;;;;;;3.10;99.90;;;;;;5107132;28;20153;-71
2022/01/02 07:51:46;;;;;;;;;;;3.10;99.90;;;;;;5094668;28;19920;-71
2022/01/02 07:54:13;;;;;;;;;;;3.20;99.90;;;;;;5107047;28;19920;-71
2022/01/02 07:56:39;;;;;;;;;;;3.20;99.90;;;;;;5107222;28;19920;-71
2022/01/02 07:59:06;;;;;;;;;;;3.20;99.90;;;;;;5106535;28;20207;-71
2022/01/02 08:01:33;;;;;;;;;;;3.30;99.90;;;;;;5106522;28;19920;-71
2022/01/02 08:04:02;;;;;;;;;;;3.30;99.90;;;;;;5106539;28;19983;-71
2022/01/02 08:06:29;;;;;;;;;;;3.40;99.90;;;;;;5102380;28;19927;-71
2022/01/02 08:08:55;;;;;;;;;;;3.40;99.90;;;;;;5158675;22;19924;-72
2022/01/02 08:11:22;;;;;;;;;;;3.50;99.90;;;;;;5107058;28;19920;-72
2022/01/02 08:13:49;;;;;;;;;;;3.50;99.90;;;;;;5106763;28;19942;-70
2022/01/02 08:16:15;;;;;;;;;;;3.50;99.90;;;;;;5106554;28;19920;-72
2022/01/02 08:18:42;;;;;;;;;;;3.60;99.90;;;;;;5106504;28;19966;-71
2022/01/02 08:21:10;;;;;;;;;;;3.60;99.90;;;;;;5102339;28;19920;-71
2022/01/02 08:23:36;;;;;;;;;;;3.70;99.90;;;;;;5106293;28;19920;-70
2022/01/02 08:26:03;;;;;;;;;;;3.70;99.90;;;;;;5106679;28;19927;-71
2022/01/02 08:28:30;;;;;;;;;;;3.70;99.90;;;;;;5106505;28;19926;-71
2022/01/02 08:30:56;;;;;;;;;;;3.80;99.90;;;;;;5103971;28;19923;-71
2022/01/02 08:33:23;;;;;;;;;;;3.80;99.90;;;;;;5106447;28;19987;-71
2022/01/02 08:35:50;;;;;;;;;;;3.80;99.90;;;;;;5106006;28;20203;-71
2022/01/02 08:38:17;;;;;;;;;;;3.90;99.90;;;;;;5106365;28;19920;-72
2022/01/02 08:40:44;;;;;;;;;;;4.00;99.90;;;;;;5091219;28;20115;-71
2022/01/02 08:43:11;;;;;;;;;;;4.00;99.90;;;;;;5086214;28;20002;-72
2022/01/02 08:45:38;;;;;;;;;;;4.00;99.90;;;;;;5085637;28;19921;-71
2022/01/02 08:48:05;;;;;;;;;;;4.10;99.90;;;;;;5085898;28;19952;-71
2022/01/02 08:50:32;;;;;;;;;;;4.10;99.90;;;;;;5085241;28;19942;-71
2022/01/02 08:52:58;;;;;;;;;;;4.10;99.90;;;;;;5086103;28;19920;-72
2022/01/02 08:55:27;;;;;;;;;;;4.10;99.90;;;;;;5085058;28;19926;-72
2022/01/02 08:57:54;;;;;;;;;;;4.20;99.90;;;;;;5085584;28;19920;-71
2022/01/02 09:00:20;;;;;;;;;;;4.20;99.90;;;;;;5086863;28;19920;-72
2022/01/02 09:02:47;;;;;;;;;;;4.20;99.90;;;;;;5085499;28;19978;-72
2022/01/02 09:05:13;;;;;;;;;;;4.20;99.90;;;;;;5085409;28;19921;-72
2022/01/02 09:07:40;;;;;;;;;;;4.30;99.90;;;;;;5084982;28;19920;-71
2022/01/02 09:10:07;;;;;;;;;;;4.30;99.90;;;;;;5084932;28;19920;-71
2022/01/02 09:12:35;;;;;;;;;;;4.30;99.90;;;;;;5084853;28;19920;-72
2022/01/02 09:15:01;;;;;;;;;;;4.40;99.90;;;;;;5084677;28;20227;-72
2022/01/02 09:17:28;;;;;;;;;;;4.40;99.90;;;;;;5084799;28;19921;-71
2022/01/02 09:19:57;;;;;;;;;;;4.40;99.90;;;;;;5084929;28;19920;-71
2022/01/02 09:22:23;;;;;;;;;;;4.50;99.90;;;;;;5085231;28;19920;-71
2022/01/02 09:24:52;;;;;;;;;;;4.60;99.90;;;;;;5084928;28;19927;-71
2022/01/02 09:27:18;;;;;;;;;;;4.60;99.90;;;;;;5085035;28;20151;-72
2022/01/02 09:29:46;;;;;;;;;;;4.70;99.90;;;;;;5084630;28;19927;-72
2022/01/02 09:32:13;;;;;;;;;;;4.80;99.90;;;;;;5084427;28;19920;-71
2022/01/02 09:34:39;;;;;;;;;;;5.00;99.90;;;;;;5084390;28;19924;-72
2022/01/02 09:37:06;;;;;;;;;;;5.10;99.90;;;;;;5090126;28;19975;-72
2022/01/02 09:39:32;;;;;;;;;;;5.10;99.90;;;;;;5083921;28;19927;-70
2022/01/02 09:41:59;;;;;;;;;;;5.20;99.90;;;;;;5099118;28;19920;-70
2022/01/02 09:44:26;;;;;;;;;;;5.20;99.90;;;;;;5105049;28;19927;-70
2022/01/02 09:46:54;;;;;;;;;;;5.20;99.90;;;;;;5104903;28;19920;-70
2022/01/02 09:49:21;;;;;;;;;;;5.40;99.90;;;;;;5104130;28;19920;-71
2022/01/02 09:51:48;;;;;;;;;;;5.40;99.90;;;;;;5102727;28;19966;-71
2022/01/02 09:54:14;;;;;;;;;;;5.40;99.90;;;;;;5104102;28;19927;-70
2022/01/02 09:56:41;;;;;;;;;;;5.50;99.90;;;;;;5104303;28;20226;-71
2022/01/02 09:59:08;;;;;;;;;;;5.60;99.90;;;;;;5102202;28;19920;-70
2022/01/02 10:01:36;;;;;;;;;;;5.70;99.90;;;;;;5084264;28;20089;-70
2022/01/02 10:04:04;;;;;;;;;;;5.70;99.90;;;;;;5084444;28;19928;-70
2022/01/02 10:06:41;;;;;;;;;;;5.80;99.90;;;;;;5088371;28;19951;-71
2022/01/02 10:09:14;;;;;;;;;;;5.90;99.90;;;;;;5092157;28;20204;-71
2022/01/02 10:11:41;;;;;;;;;;;5.90;99.90;;;;;;5091582;28;19921;-70
2022/01/02 10:14:09;;;;;;;;;;;6.00;99.90;;;;;;5084331;28;20112;-71
2022/01/02 10:16:37;;;;;;;;;;;6.00;99.90;;;;;;5097837;28;19928;-71
2022/01/02 10:19:19;;;;;;;;;;;6.10;99.90;;;;;;5102278;28;19920;-72
2022/01/02 10:21:55;;;;;;;;;;;6.20;99.90;;;;;;5089514;28;19924;-70
2022/01/02 10:24:22;;;;;;;;;;;6.30;99.90;;;;;;5083225;28;19978;-71
2022/01/02 10:27:07;;;;;;;;;;;6.40;99.90;;;;;;5091840;28;19920;-72
2022/01/02 10:29:40;;;;;;;;;;;6.50;99.90;;;;;;5081732;28;20335;-72
2022/01/02 10:32:22;;;;;;;;;;;6.60;99.90;;;;;;5083110;28;19924;-72
2022/01/02 10:34:50;;;;;;;;;;;6.70;99.90;;;;;;5082743;28;20187;-72
2022/01/02 10:37:23;;;;;;;;;;;6.70;99.90;;;;;;5095492;28;19927;-72
2022/01/02 10:39:49;;;;;;;;;;;6.70;99.90;;;;;;5087052;28;20089;-72
2022/01/02 10:42:17;;;;;;;;;;;6.70;99.90;;;;;;5088047;28;20158;-69
2022/01/02 10:44:43;;;;;;;;;;;6.70;99.90;;;;;;5096412;28;19957;-72
2022/01/02 10:47:15;;;;;;;;;;;6.80;99.90;;;;;;5101638;28;19924;-72
2022/01/02 10:49:48;;;;;;;;;;;6.80;99.90;;;;;;5085166;28;19955;-71
2022/01/02 10:52:20;;;;;;;;;;;6.80;99.90;;;;;;5093277;28;19926;-71
2022/01/02 10:54:47;;;;;;;;;;;6.90;99.90;;;;;;5095488;28;19986;-70
2022/01/02 10:57:14;;;;;;;;;;;7.00;99.90;;;;;;5097105;28;20108;-71
2022/01/02 10:59:41;;;;;;;;;;;7.10;99.90;;;;;;5093078;28;19926;-71
2022/01/02 11:02:09;;;;;;;;;;;7.20;99.90;;;;;;5099586;28;19920;-70
2022/01/02 11:04:36;;;;;;;;;;;7.30;99.90;;;;;;5087272;28;19927;-70
2022/01/02 11:07:03;;;;;;;;;;;7.30;99.90;;;;;;5093916;28;19923;-71
2022/01/02 11:09:32;;;;;;;;;;;7.30;99.90;;;;;;5088392;28;19935;-70
2022/01/02 11:11:58;;;;;;;;;;;7.40;99.90;;;;;;5086896;28;19920;-71
2022/01/02 11:14:25;;;;;;;;;;;7.40;99.90;;;;;;5094163;28;19924;-71
2022/01/02 11:16:52;;;;;;;;;;;7.50;99.90;;;;;;5089042;28;19927;-72
2022/01/02 11:19:19;;;;;;;;;;;7.60;99.90;;;;;;5102044;28;19928;-71
2022/01/02 11:21:46;;;;;;;;;;;7.60;99.90;;;;;;5087500;28;19939;-70
2022/01/02 11:24:18;;;;;;;;;;;7.60;99.90;;;;;;5094241;28;19920;-70
2022/01/02 11:26:53;;;;;;;;;;;7.60;99.90;;;;;;5097156;28;19927;-70
2022/01/02 11:29:25;;;;;;;;;;;7.60;99.90;;;;;;5101360;28;19927;-71
2022/01/02 11:31:52;;;;;;;;;;;7.70;99.90;;;;;;5092997;28;19928;-74
2022/01/02 11:34:23;;;;;;;;;;;7.80;99.90;;;;;;5094894;28;20234;-70
2022/01/02 11:36:50;;;;;;;;;;;7.80;99.90;;;;;;5087860;28;19920;-71
2022/01/02 11:39:16;;;;;;;;;;;7.70;99.90;;;;;;5089773;28;19926;-71
2022/01/02 11:41:44;;;;;;;;;;;7.80;99.90;;;;;;5105102;28;19920;-70
2022/01/02 11:44:12;;;;;;;;;;;7.80;99.90;;;;;;5105504;28;19942;-70
2022/01/02 11:46:40;;;;;;;;;;;7.90;99.90;;;;;;5100305;28;19920;-71
2022/01/02 11:49:25;;;;;;;;;;;7.90;99.90;;;;;;5096755;28;19920;-70
2022/01/02 11:51:59;;;;;;;;;;;7.90;99.90;;;;;;5094026;28;19927;-71
2022/01/02 11:54:43;;;;;;;;;;;8.00;99.90;;;;;;5091240;28;19927;-70
2022/01/02 11:57:28;;;;;;;;;;;8.00;99.90;;;;;;5101291;28;19979;-69
2022/01/02 11:59:58;;;;;;;;;;;8.00;99.90;;;;;;5093127;28;19924;-70
2022/01/02 12:02:35;;;;;;;;;;;8.10;99.90;;;;;;5095906;28;19928;-70
2022/01/02 12:05:14;;;;;;;;;;;8.10;99.90;;;;;;5097354;28;19924;-71
2022/01/02 12:07:50;;;;;;;;;;;8.10;99.90;;;;;;5101619;28;19920;-70
2022/01/02 12:10:20;;;;;;;;;;;8.10;99.90;;;;;;5089018;28;19951;-71
2022/01/02 12:13:09;;;;;;;;;;;8.10;99.90;;;;;;5102393;28;20120;-70
2022/01/02 12:15:52;;;;;;;;;;;8.10;99.90;;;;;;5100533;28;19921;-70
2022/01/02 12:18:24;;;;;;;;;;;8.10;99.90;;;;;;5099583;28;19942;-70
2022/01/02 12:21:09;;;;;;;;;;;8.10;99.90;;;;;;5094088;28;19921;-70
2022/01/02 12:23:53;;;;;;;;;;;8.10;99.90;;;;;;5087476;28;19943;-71
2022/01/02 12:26:21;;;;;;;;;;;8.10;99.90;;;;;;5085942;28;19927;-71
2022/01/02 12:28:56;;;;;;;;;;;8.10;99.90;;;;;;5091379;28;19920;-71
2022/01/02 12:31:24;;;;;;;;;;;8.10;99.90;;;;;;5093408;28;19939;-72
2022/01/02 12:33:51;;;;;;;;;;;8.10;99.90;;;;;;5096071;28;19934;-71
2022/01/02 12:36:19;;;;;;;;;;;8.10;99.90;;;;;;5099648;28;20115;-70
2022/01/02 12:38:46;;;;;;;;;;;8.30;99.90;;;;;;5095701;28;19928;-70
2022/01/02 12:41:13;;;;;;;;;;;8.30;99.90;;;;;;5101799;28;19920;-71
2022/01/02 12:43:41;;;;;;;;;;;8.50;99.90;;;;;;5087938;28;20242;-69
2022/01/02 12:46:08;;;;;;;;;;;8.60;99.90;;;;;;5104378;28;19988;-70
2022/01/02 12:48:35;;;;;;;;;;;8.80;99.90;;;;;;5094769;28;19928;-71
2022/01/02 12:51:10;;;;;;;;;;;8.90;99.90;;;;;;5096175;28;19920;-71
2022/01/02 12:53:39;;;;;;;;;;;9.00;99.90;;;;;;5104464;28;19920;-71
2022/01/02 12:56:06;;;;;;;;;;;9.00;99.90;;;;;;5106221;28;19920;-70
2022/01/02 12:58:34;;;;;;;;;;;9.10;99.90;;;;;;5100713;28;19987;-70
2022/01/02 13:01:02;;;;;;;;;;;9.10;99.90;;;;;;5105454;28;19986;-70
2022/01/02 13:03:29;;;;;;;;;;;9.20;99.90;;;;;;5093693;28;19966;-70
2022/01/02 13:05:56;;;;;;;;;;;9.30;99.90;;;;;;5087559;28;19928;-71
2022/01/02 13:08:24;;;;;;;;;;;9.30;99.90;;;;;;5103837;28;19923;-70
2022/01/02 13:10:51;;;;;;;;;;;9.40;99.90;;;;;;5097086;28;19934;-71
2022/01/02 13:13:28;;;;;;;;;;;9.40;99.90;;;;;;5088998;28;19953;-71
2022/01/02 13:15:54;;;;;;;;;;;9.40;99.90;;;;;;5101748;28;19939;-70
2022/01/02 13:18:21;;;;;;;;;;;9.50;99.90;;;;;;5104983;28;19920;-71
2022/01/02 13:20:48;;;;;;;;;;;9.50;99.90;;;;;;5089623;28;19921;-70
2022/01/02 13:23:15;;;;;;;;;;;9.50;99.90;;;;;;5085347;28;19927;-70
2022/01/02 13:25:45;;;;;;;;;;;9.50;99.90;;;;;;5086228;28;19921;-71
2022/01/02 13:28:13;;;;;;;;;;;9.70;99.90;;;;;;5102371;28;19986;-70
2022/01/02 13:30:40;;;;;;;;;;;9.80;99.90;;;;;;5095968;28;19943;-70
2022/01/02 13:33:17;;;;;;;;;;;9.80;99.90;;;;;;5102500;28;19983;-71
2022/01/02 13:35:43;;;;;;;;;;;9.90;99.90;;;;;;5087727;28;19927;-70
2022/01/02 13:38:11;;;;;;;;;;;9.90;99.90;;;;;;5094531;28;19927;-70
2022/01/02 13:40:39;;;;;;;;;;;9.90;99.90;;;;;;5096663;28;19974;-70
2022/01/02 13:43:11;;;;;;;;;;;10.00;99.90;;;;;;5094974;28;19920;-70
2022/01/02 13:45:39;;;;;;;;;;;10.10;99.90;;;;;;5099684;28;19927;-71
2022/01/02 13:48:07;;;;;;;;;;;10.10;99.90;;;;;;5093342;28;19920;-71
2022/01/02 13:50:35;;;;;;;;;;;10.20;99.90;;;;;;5104132;28;20230;-70
2022/01/02 13:53:03;;;;;;;;;;;10.20;99.90;;;;;;5105097;28;19920;-70
2022/01/02 13:55:32;;;;;;;;;;;10.20;99.90;;;;;;5104813;28;19927;-70
2022/01/02 13:58:00;;;;;;;;;;;10.30;99.90;;;;;;5105123;28;19938;-70
2022/01/02 14:00:29;;;;;;;;;;;10.40;99.90;;;;;;5105198;28;19920;-70
2022/01/02 14:02:55;;;;;;;;;;;10.40;99.90;;;;;;5105032;28;19919;-70
2022/01/02 14:05:22;;;;;;;;;;;10.60;99.90;;;;;;5104740;28;19926;-70
2022/01/02 14:07:49;;;;;;;;;;;10.60;99.90;;;;;;5104794;28;19920;-70
2022/01/02 14:10:16;;;;;;;;;;;10.60;99.90;;;;;;5105065;28;19920;-70
2022/01/02 14:12:43;;;;;;;;;;;10.70;99.90;;;;;;5121816;22;19996;-72
2022/01/02 14:15:18;;;;;;;;;;;10.80;99.90;;;;;;5063192;28;19921;-72
2022/01/02 14:17:47;;;;;;;;;;;10.80;99.90;;;;;;5064027;28;20258;-71
2022/01/02 14:20:15;;;;;;;;;;;10.80;99.90;;;;;;5064088;28;19927;-71
2022/01/02 14:22:42;;;;;;;;;;;10.70;99.90;;;;;;5064083;28;20105;-71
2022/01/02 14:25:09;;;;;;;;;;;10.80;99.90;;;;;;5062900;28;20115;-70
2022/01/02 14:27:36;;;;;;;;;;;10.80;99.90;;;;;;5064012;28;19920;-70
2022/01/02 14:30:04;;;;;;;;;;;10.80;99.90;;;;;;5063487;28;20221;-72
2022/01/02 14:32:30;;;;;;;;;;;10.80;99.90;;;;;;5063768;28;19927;-72
2022/01/02 14:34:58;;;;;;;;;;;10.80;99.90;;;;;;5062340;28;19928;-72
2022/01/02 14:37:25;;;;;;;;;;;10.80;99.90;;;;;;5062581;28;19979;-70